createdAt,value
2023-03-06T00:00:46.567Z,468.00
2023-03-06T00:01:46.620Z,466.00
2023-03-06T00:02:46.608Z,467.00
2023-03-06T00:03:46.645Z,466.00
2023-03-06T00:04:46.708Z,466.00
2023-03-06T00:05:46.715Z,468.00
2023-03-06T00:06:46.721Z,467.00
2023-03-06T00:07:46.771Z,467.00
2023-03-06T00:08:46.770Z,468.00
2023-03-06T00:09:46.795Z,469.00
2023-03-06T00:10:46.841Z,470.00
2023-03-06T00:11:46.852Z,470.00
2023-03-06T00:12:46.932Z,466.00
2023-03-06T00:13:46.929Z,464.00
2023-03-06T00:14:46.947Z,465.00
2023-03-06T00:15:46.995Z,467.00
2023-03-06T00:16:46.990Z,468.00
2023-03-06T00:17:47.013Z,467.00
2023-03-06T00:18:47.056Z,466.00
2023-03-06T00:19:47.054Z,466.00
2023-03-06T00:20:47.123Z,468.00
2023-03-06T00:21:47.113Z,470.00
2023-03-06T00:22:47.159Z,469.00
2023-03-06T00:23:47.167Z,471.00
2023-03-06T00:24:47.210Z,473.00
2023-03-06T00:25:47.213Z,473.00
2023-03-06T00:26:47.268Z,472.00
2023-03-06T00:27:47.276Z,472.00
2023-03-06T00:28:47.304Z,471.00
2023-03-06T00:29:47.360Z,468.00
2023-03-06T00:30:47.363Z,467.00
2023-03-06T00:31:47.435Z,468.00
2023-03-06T00:32:47.412Z,467.00
2023-03-06T00:33:47.439Z,468.00
2023-03-06T00:34:47.460Z,469.00
2023-03-06T00:35:47.529Z,470.00
2023-03-06T00:36:47.501Z,471.00
2023-03-06T00:37:47.552Z,473.00
2023-03-06T00:38:47.560Z,472.00
2023-03-06T00:39:47.607Z,469.00
2023-03-06T00:40:47.629Z,471.00
2023-03-06T00:41:47.656Z,471.00
2023-03-06T00:42:47.699Z,470.00
2023-03-06T00:43:47.676Z,470.00
2023-03-06T00:44:47.697Z,470.00
2023-03-06T00:45:47.787Z,470.00
2023-03-06T00:46:47.749Z,468.00
2023-03-06T00:47:47.783Z,470.00
2023-03-06T00:48:47.819Z,469.00
2023-03-06T00:49:47.829Z,468.00
2023-03-06T00:50:47.841Z,469.00
2023-03-06T00:51:47.874Z,471.00
2023-03-06T00:52:47.916Z,472.00
2023-03-06T00:53:47.936Z,472.00
2023-03-06T00:54:47.968Z,471.00
2023-03-06T00:55:47.964Z,473.00
2023-03-06T00:56:48.009Z,475.00
2023-03-06T00:57:48.048Z,475.00
2023-03-06T00:58:48.045Z,474.00
2023-03-06T00:59:48.069Z,473.00
2023-03-06T01:00:48.174Z,475.00
2023-03-06T01:01:48.159Z,473.00
2023-03-06T01:02:48.127Z,473.00
2023-03-06T01:03:48.198Z,473.00
2023-03-06T01:04:48.184Z,473.00
2023-03-06T01:05:48.209Z,475.00
2023-03-06T01:06:48.231Z,478.00
2023-03-06T01:07:48.267Z,479.00
2023-03-06T01:08:48.290Z,479.00
2023-03-06T01:09:48.304Z,480.00
2023-03-06T01:10:48.382Z,477.00
2023-03-06T01:11:48.374Z,476.00
2023-03-06T01:12:48.415Z,475.00
2023-03-06T01:13:48.428Z,477.00
2023-03-06T01:14:48.469Z,476.00
2023-03-06T01:15:48.511Z,475.00
2023-03-06T01:16:48.529Z,476.00
2023-03-06T01:17:48.557Z,474.00
2023-03-06T01:18:48.573Z,472.00
2023-03-06T01:19:48.573Z,473.00
2023-03-06T01:20:48.617Z,473.00
2023-03-06T01:21:48.643Z,470.00
2023-03-06T01:22:48.657Z,469.00
2023-03-06T01:23:48.690Z,470.00
2023-03-06T01:24:48.716Z,470.00
2023-03-06T01:25:48.718Z,473.00
2023-03-06T01:26:48.763Z,472.00
2023-03-06T01:27:48.800Z,474.00
2023-03-06T01:28:48.813Z,475.00
2023-03-06T01:29:48.824Z,478.00
2023-03-06T01:30:48.884Z,476.00
2023-03-06T01:31:48.933Z,473.00
2023-03-06T01:32:48.936Z,473.00
2023-03-06T01:33:48.982Z,475.00
2023-03-06T01:34:49.019Z,473.00
2023-03-06T01:35:49.071Z,471.00
2023-03-06T01:36:49.085Z,472.00
2023-03-06T01:37:49.093Z,473.00
2023-03-06T01:38:49.141Z,471.00
2023-03-06T01:39:49.144Z,474.00
2023-03-06T01:40:49.187Z,474.00
2023-03-06T01:41:49.206Z,472.00
2023-03-06T01:42:49.231Z,473.00
2023-03-06T01:43:49.302Z,473.00
2023-03-06T01:44:49.300Z,471.00
2023-03-06T01:45:49.410Z,474.00
2023-03-06T01:46:49.377Z,475.00
2023-03-06T01:47:49.395Z,476.00
2023-03-06T01:48:49.408Z,476.00
2023-03-06T01:49:49.466Z,476.00
2023-03-06T01:50:49.475Z,478.00
2023-03-06T01:51:49.509Z,478.00
2023-03-06T01:52:49.567Z,476.00
2023-03-06T01:53:49.617Z,478.00
2023-03-06T01:54:49.598Z,480.00
2023-03-06T01:55:49.648Z,479.00
2023-03-06T01:56:49.674Z,478.00
2023-03-06T01:57:49.715Z,474.00
2023-03-06T01:58:49.740Z,474.00
2023-03-06T01:59:49.804Z,476.00
2023-03-06T02:00:49.836Z,477.00
2023-03-06T02:01:49.868Z,478.00
2023-03-06T02:02:49.911Z,477.00
2023-03-06T02:03:49.916Z,477.00
2023-03-06T02:04:49.931Z,476.00
2023-03-06T02:05:49.987Z,476.00
2023-03-06T02:06:49.987Z,476.00
2023-03-06T02:07:50.043Z,473.00
2023-03-06T02:08:50.066Z,470.00
2023-03-06T02:09:50.088Z,471.00
2023-03-06T02:10:50.115Z,471.00
2023-03-06T02:11:50.144Z,471.00
2023-03-06T02:12:50.157Z,471.00
2023-03-06T02:13:50.177Z,474.00
2023-03-06T02:14:50.218Z,475.00
2023-03-06T02:15:50.239Z,474.00
2023-03-06T02:16:50.280Z,476.00
2023-03-06T02:17:50.280Z,476.00
2023-03-06T02:18:50.290Z,477.00
2023-03-06T02:19:50.302Z,478.00
2023-03-06T02:20:50.299Z,477.00
2023-03-06T02:21:50.350Z,475.00
2023-03-06T02:22:50.332Z,476.00
2023-03-06T02:23:50.376Z,475.00
2023-03-06T02:24:50.339Z,476.00
2023-03-06T02:25:50.351Z,475.00
2023-03-06T02:26:50.349Z,478.00
2023-03-06T02:29:50.352Z,473.00
2023-03-06T02:30:50.387Z,476.00
2023-03-06T02:31:50.314Z,475.00
2023-03-06T02:32:50.375Z,476.00
2023-03-06T02:33:50.374Z,477.00
2023-03-06T02:34:50.386Z,475.00
2023-03-06T02:35:50.423Z,476.00
2023-03-06T02:36:50.432Z,476.00
2023-03-06T02:37:50.471Z,475.00
2023-03-06T02:38:50.472Z,475.00
2023-03-06T02:39:50.488Z,473.00
2023-03-06T02:40:50.533Z,475.00
2023-03-06T02:41:50.586Z,476.00
2023-03-06T02:42:50.613Z,478.00
2023-03-06T02:43:50.668Z,479.00
2023-03-06T02:44:50.727Z,479.00
2023-03-06T02:45:50.853Z,476.00
2023-03-06T02:46:50.850Z,476.00
2023-03-06T02:47:50.949Z,477.00
2023-03-06T02:48:50.992Z,475.00
2023-03-06T02:49:51.053Z,475.00
2023-03-06T02:50:51.124Z,474.00
2023-03-06T02:51:51.176Z,474.00
2023-03-06T02:52:51.232Z,476.00
2023-03-06T02:53:51.290Z,475.00
2023-03-06T02:54:51.408Z,471.00
2023-03-06T02:55:51.406Z,471.00
2023-03-06T02:56:51.491Z,471.00
2023-03-06T02:57:51.532Z,470.00
2023-03-06T02:58:51.574Z,468.00
2023-03-06T02:59:51.652Z,469.00
2023-03-06T03:00:51.699Z,469.00
2023-03-06T03:01:51.832Z,468.00
2023-03-06T03:02:51.803Z,467.00
2023-03-06T03:03:51.849Z,466.00
2023-03-06T03:04:51.946Z,467.00
2023-03-06T03:05:51.950Z,469.00
2023-03-06T03:06:52.013Z,468.00
2023-03-06T03:07:52.038Z,468.00
2023-03-06T03:08:52.129Z,468.00
2023-03-06T03:09:52.185Z,471.00
2023-03-06T03:10:52.205Z,471.00
2023-03-06T03:11:52.244Z,470.00
2023-03-06T03:12:52.266Z,471.00
2023-03-06T03:13:52.445Z,468.00
2023-03-06T03:14:52.364Z,469.00
2023-03-06T03:15:52.438Z,470.00
2023-03-06T03:16:52.502Z,470.00
2023-03-06T03:17:52.510Z,471.00
2023-03-06T03:18:52.556Z,473.00
2023-03-06T03:19:52.628Z,473.00
2023-03-06T03:20:52.700Z,473.00
2023-03-06T03:21:52.707Z,474.00
2023-03-06T03:22:52.750Z,474.00
2023-03-06T03:23:52.776Z,475.00
2023-03-06T03:24:52.946Z,478.00
2023-03-06T03:25:52.879Z,477.00
2023-03-06T03:26:52.888Z,475.00
2023-03-06T03:27:52.979Z,476.00
2023-03-06T03:28:53.039Z,478.00
2023-03-06T03:29:53.031Z,476.00
2023-03-06T03:30:53.138Z,475.00
2023-03-06T03:31:53.113Z,477.00
2023-03-06T03:32:53.154Z,475.00
2023-03-06T03:33:53.176Z,475.00
2023-03-06T03:34:53.285Z,476.00
2023-03-06T03:35:53.275Z,478.00
2023-03-06T05:19:56.169Z,483.00
2023-03-06T05:27:56.425Z,483.00
2023-03-06T05:28:56.479Z,484.00
2023-03-06T05:29:56.509Z,486.00
2023-03-06T05:30:56.528Z,487.00
2023-03-06T05:31:56.639Z,488.00
2023-03-06T05:32:56.614Z,487.00
2023-03-06T05:33:56.617Z,490.00
2023-03-06T05:34:56.662Z,489.00
2023-03-06T05:35:56.753Z,488.00
2023-03-06T05:36:56.754Z,488.00
2023-03-06T05:37:56.797Z,489.00
2023-03-06T05:38:56.824Z,489.00
2023-03-06T05:39:56.858Z,489.00
2023-03-06T05:40:56.920Z,488.00
2023-03-06T05:41:56.948Z,488.00
2023-03-06T05:42:56.953Z,488.00
2023-03-06T05:43:56.999Z,484.00
2023-03-06T05:44:57.024Z,485.00
2023-03-06T05:45:57.114Z,485.00
2023-03-06T05:46:57.080Z,486.00
2023-03-06T05:47:57.140Z,487.00
2023-03-06T05:48:57.163Z,485.00
2023-03-06T05:49:57.190Z,485.00
2023-03-06T05:50:57.218Z,483.00
2023-03-06T05:51:57.262Z,483.00
2023-03-06T05:52:57.293Z,483.00
2023-03-06T05:53:57.330Z,485.00
2023-03-06T05:54:57.360Z,484.00
2023-03-06T05:55:57.383Z,486.00
2023-03-06T05:56:57.423Z,487.00
2023-03-06T05:57:57.465Z,484.00
2023-03-06T05:58:57.502Z,483.00
2023-03-06T05:59:57.538Z,484.00
2023-03-06T06:01:04.928Z,483.00
2023-03-06T06:02:57.603Z,481.00
2023-03-06T06:03:57.601Z,481.00
2023-03-06T06:04:57.626Z,481.00
2023-03-06T06:05:57.543Z,483.00
2023-03-06T06:06:57.514Z,484.00
2023-03-06T06:07:57.519Z,487.00
2023-03-06T06:25:58.003Z,485.00
2023-03-06T06:35:57.932Z,601.00
2023-03-06T06:36:57.959Z,655.00
2023-03-06T06:37:57.993Z,688.00
2023-03-06T06:38:58.046Z,694.00
2023-03-06T06:39:58.172Z,688.00
2023-03-06T06:41:29.149Z,692.00
2023-03-06T06:42:15.463Z,763.00
2023-03-06T06:42:59.149Z,843.00
2023-03-06T06:43:59.121Z,854.00
2023-03-06T06:44:58.139Z,851.00
2023-03-06T06:46:28.274Z,771.00
2023-03-06T06:47:28.214Z,776.00
2023-03-06T06:47:59.225Z,779.00
2023-03-06T06:48:58.230Z,780.00
2023-03-06T06:49:58.145Z,797.00
2023-03-06T06:50:58.131Z,857.00
2023-03-06T06:51:58.081Z,877.00
2023-03-06T06:52:58.107Z,902.00
2023-03-06T06:53:58.075Z,938.00
2023-03-06T06:54:58.061Z,957.00
2023-03-06T06:55:58.070Z,989.00
2023-03-06T06:56:58.043Z,1029.00
2023-03-06T06:57:58.053Z,1055.00
2023-03-06T06:59:14.004Z,1078.00
2023-03-06T06:59:59.006Z,1093.00
2023-03-06T07:00:58.047Z,1147.00
2023-03-06T07:01:58.049Z,1161.00
2023-03-06T07:02:58.035Z,1174.00
2023-03-06T07:03:58.067Z,1177.00
2023-03-06T07:05:04.172Z,1187.00
2023-03-06T07:05:59.009Z,1207.00
2023-03-06T07:06:57.972Z,1226.00
2023-03-06T07:07:57.989Z,1252.00
2023-03-06T07:08:58.021Z,1267.00
2023-03-06T07:09:57.966Z,1279.00
2023-03-06T07:10:57.935Z,1308.00
2023-03-06T07:11:57.978Z,1312.00
2023-03-06T07:12:57.953Z,1323.00
2023-03-06T07:13:57.924Z,1337.00
2023-03-06T07:14:57.938Z,1352.00
2023-03-06T07:15:58.058Z,1367.00
2023-03-06T07:16:57.969Z,1391.00
2023-03-06T07:17:57.912Z,1405.00
2023-03-06T07:18:57.926Z,1414.00
2023-03-06T07:19:57.884Z,1437.00
2023-03-06T07:20:59.822Z,1453.00
2023-03-06T07:21:57.895Z,1466.00
2023-03-06T07:22:57.889Z,1488.00
2023-03-06T07:23:58.459Z,1507.00
2023-03-06T07:24:57.855Z,1517.00
2023-03-06T07:25:57.872Z,1527.00
2023-03-06T07:26:57.836Z,1534.00
2023-03-06T07:27:57.841Z,1548.00
2023-03-06T07:28:57.815Z,1563.00
2023-03-06T07:29:57.810Z,1576.00
2023-03-06T07:30:57.829Z,1596.00
2023-03-06T07:31:57.820Z,1603.00
2023-03-06T07:32:57.777Z,1612.00
2023-03-06T07:33:57.824Z,1622.00
2023-03-06T07:35:57.786Z,1650.00
2023-03-06T07:36:57.996Z,1675.00
2023-03-06T07:37:57.752Z,1701.00
2023-03-06T07:38:57.757Z,1703.00
2023-03-06T07:39:57.717Z,1699.00
2023-03-06T07:40:57.729Z,1690.00
2023-03-06T07:41:58.039Z,1656.00
2023-03-06T07:43:09.172Z,1627.00
2023-03-06T07:43:58.734Z,1619.00
2023-03-06T07:44:57.736Z,1622.00
2023-03-06T07:45:57.765Z,1629.00
2023-03-06T07:46:57.778Z,1635.00
2023-03-06T07:47:57.674Z,1644.00
2023-03-06T07:48:57.684Z,1656.00
2023-03-06T07:49:57.696Z,1668.00
2023-03-06T07:50:57.677Z,1692.00
2023-03-06T07:51:58.055Z,1693.00
2023-03-06T07:52:57.664Z,1706.00
2023-03-06T07:53:57.625Z,1718.00
2023-03-06T07:54:57.658Z,1773.00
2023-03-06T07:55:57.918Z,1772.00
2023-03-06T07:56:58.522Z,1770.00
2023-03-06T07:57:57.600Z,1749.00
2023-03-06T07:58:57.625Z,1662.00
2023-03-06T07:59:57.628Z,1643.00
2023-03-06T08:00:57.602Z,1580.00
2023-03-06T08:01:57.627Z,1543.00
2023-03-06T08:02:57.666Z,1524.00
2023-03-06T08:03:57.790Z,1438.00
2023-03-06T08:04:57.713Z,1417.00
2023-03-06T08:06:57.984Z,1392.00
2023-03-06T08:07:57.685Z,1339.00
2023-03-06T08:08:57.699Z,1309.00
2023-03-06T08:09:57.719Z,1286.00
2023-03-06T08:10:57.668Z,1243.00
2023-03-06T08:11:57.697Z,1230.00
2023-03-06T08:12:57.689Z,1221.00
2023-03-06T08:13:57.691Z,1206.00
2023-03-06T08:14:57.715Z,1200.00
2023-03-06T08:15:57.750Z,1190.00
2023-03-06T08:16:57.711Z,1178.00
2023-03-06T08:17:57.967Z,1172.00
2023-03-06T08:21:57.695Z,1112.00
2023-03-06T08:22:57.977Z,1090.00
2023-03-06T08:23:57.703Z,1088.00
2023-03-06T08:24:57.756Z,1083.00
2023-03-06T08:25:57.711Z,1077.00
2023-03-06T08:26:57.751Z,1073.00
2023-03-06T08:27:57.992Z,1067.00
2023-03-06T08:28:57.762Z,1059.00
2023-03-06T08:29:57.794Z,1048.00
2023-03-06T08:30:57.822Z,1038.00
2023-03-06T08:31:57.804Z,1031.00
2023-03-06T08:32:57.965Z,1031.00
2023-03-06T08:33:58.031Z,741.00
2023-03-06T08:34:57.901Z,668.00
2023-03-06T08:35:58.806Z,651.00
2023-03-06T08:36:57.977Z,620.00
2023-03-06T08:37:58.571Z,718.00
2023-03-06T08:38:58.088Z,723.00
2023-03-06T08:39:58.094Z,737.00
2023-03-06T08:40:58.083Z,834.00
2023-03-06T08:41:58.102Z,754.00
2023-03-06T08:42:58.547Z,675.00
2023-03-06T08:43:58.211Z,676.00
2023-03-06T08:44:58.205Z,736.00
2023-03-06T08:45:58.233Z,764.00
2023-03-06T08:46:58.282Z,781.00
2023-03-06T08:47:58.555Z,850.00
2023-03-06T08:48:58.437Z,865.00
2023-03-06T08:50:00.180Z,884.00
2023-03-06T08:50:58.451Z,931.00
2023-03-06T08:51:58.414Z,948.00
2023-03-06T08:52:58.514Z,990.00
2023-03-06T08:53:58.472Z,1012.00
2023-03-06T08:54:58.516Z,1024.00
2023-03-06T08:55:58.568Z,1035.00
2023-03-06T08:56:58.581Z,1051.00
2023-03-06T08:57:58.600Z,1068.00
2023-03-06T08:58:58.594Z,1087.00
2023-03-06T08:59:58.613Z,1142.00
2023-03-06T09:00:58.745Z,1160.00
2023-03-06T09:01:58.640Z,1168.00
2023-03-06T09:02:58.750Z,1190.00
2023-03-06T09:03:58.773Z,1211.00
2023-03-06T09:04:58.834Z,1229.00
2023-03-06T09:05:58.878Z,1250.00
2023-03-06T09:06:58.948Z,1264.00
2023-03-06T09:07:58.966Z,1320.00
2023-03-06T09:08:58.966Z,1329.00
2023-03-06T09:09:59.015Z,1341.00
2023-03-06T09:10:59.121Z,1387.00
2023-03-06T09:11:59.994Z,1392.00
2023-03-06T09:12:59.108Z,1406.00
2023-03-06T09:13:59.119Z,1426.00
2023-03-06T09:14:59.161Z,1439.00
2023-03-06T09:15:59.163Z,1448.00
2023-03-06T09:16:59.165Z,1459.00
2023-03-06T09:17:59.184Z,1473.00
2023-03-06T09:18:59.140Z,1485.00
2023-03-06T09:19:59.157Z,1518.00
2023-03-06T09:20:59.152Z,1537.00
2023-03-06T09:21:59.116Z,1548.00
2023-03-06T09:22:59.103Z,1560.00
2023-03-06T09:23:59.149Z,1571.00
2023-03-06T09:24:59.182Z,1586.00
2023-03-06T09:25:59.199Z,1613.00
2023-03-06T09:26:59.203Z,1636.00
2023-03-06T09:28:10.788Z,1653.00
2023-03-06T09:29:00.236Z,1664.00
2023-03-06T09:29:59.180Z,1671.00
2023-03-06T09:30:59.372Z,1679.00
2023-03-06T09:31:59.184Z,1690.00
2023-03-06T09:32:59.509Z,1277.00
2023-03-06T09:33:59.184Z,826.00
2023-03-06T09:34:59.179Z,689.00
2023-03-06T09:35:59.269Z,656.00
2023-03-06T09:37:59.526Z,764.00
2023-03-06T09:38:59.241Z,800.00
2023-03-06T09:39:59.505Z,826.00
2023-03-06T09:40:59.106Z,932.00
2023-03-06T09:41:59.465Z,981.00
2023-03-06T09:42:59.209Z,1027.00
2023-03-06T09:43:59.177Z,1125.00
2023-03-06T09:44:59.189Z,1100.00
2023-03-06T09:45:59.294Z,1077.00
2023-03-06T09:46:59.323Z,1075.00
2023-03-06T09:47:59.339Z,1082.00
2023-03-06T09:48:59.348Z,1092.00
2023-03-06T09:49:59.400Z,1089.00
2023-03-06T09:50:59.764Z,1091.00
2023-03-06T09:51:59.412Z,1102.00
2023-03-06T09:52:59.442Z,1104.00
2023-03-06T09:53:59.520Z,1106.00
2023-03-06T09:54:59.473Z,1113.00
2023-03-06T09:55:59.512Z,1122.00
2023-03-06T09:56:59.551Z,1171.00
2023-03-06T09:57:59.565Z,1191.00
2023-03-06T09:59:00.030Z,1229.00
2023-03-06T10:00:01.009Z,1267.00
2023-03-06T10:00:59.723Z,1286.00
2023-03-06T10:01:59.795Z,1296.00
2023-03-06T10:02:59.886Z,1314.00
2023-03-06T10:03:59.859Z,1367.00
2023-03-06T10:04:59.882Z,1377.00
2023-03-06T10:06:02.429Z,1392.00
2023-03-06T10:06:59.929Z,1410.00
2023-03-06T10:07:59.921Z,1472.00
2023-03-06T10:08:59.915Z,1473.00
2023-03-06T10:09:59.905Z,1483.00
2023-03-06T10:10:59.919Z,1501.00
2023-03-06T10:11:59.900Z,1531.00
2023-03-06T10:12:59.850Z,1538.00
2023-03-06T10:14:00.056Z,1544.00
2023-03-06T10:14:59.874Z,1574.00
2023-03-06T10:15:59.903Z,1590.00
2023-03-06T10:16:59.830Z,1609.00
2023-03-06T10:17:59.834Z,1648.00
2023-03-06T10:18:59.845Z,1667.00
2023-03-06T10:19:59.893Z,1689.00
2023-03-06T10:21:13.427Z,1711.00
2023-03-06T10:22:00.804Z,1743.00
2023-03-06T10:23:03.160Z,1767.00
2023-03-06T10:24:01.058Z,1783.00
2023-03-06T10:24:59.822Z,1800.00
2023-03-06T10:25:59.881Z,1811.00
2023-03-06T10:26:59.931Z,1828.00
2023-03-06T10:27:59.846Z,1877.00
2023-03-06T10:28:59.746Z,1891.00
2023-03-06T10:30:03.339Z,1901.00
2023-03-06T10:30:59.858Z,1919.00
2023-03-06T10:31:59.841Z,1933.00
2023-03-06T10:32:59.874Z,1949.00
2023-03-06T10:33:59.796Z,1957.00
2023-03-06T10:34:59.787Z,1970.00
2023-03-06T10:35:59.803Z,1990.00
2023-03-06T10:36:59.795Z,1996.00
2023-03-06T10:37:59.754Z,2008.00
2023-03-06T10:38:59.822Z,2018.00
2023-03-06T10:39:59.793Z,2032.00
2023-03-06T10:40:59.749Z,2045.00
2023-03-06T10:41:59.704Z,1112.00
2023-03-06T10:43:11.191Z,683.00
2023-03-06T10:44:00.763Z,674.00
2023-03-06T10:44:59.760Z,644.00
2023-03-06T10:45:59.796Z,626.00
2023-03-06T10:46:59.733Z,841.00
2023-03-06T10:47:59.696Z,891.00
2023-03-06T10:49:00.095Z,920.00
2023-03-06T10:49:59.674Z,1055.00
2023-03-06T10:51:01.115Z,1093.00
2023-03-06T10:51:59.644Z,1206.00
2023-03-06T10:53:00.530Z,1207.00
2023-03-06T10:53:59.739Z,1215.00
2023-03-06T10:54:59.640Z,1224.00
2023-03-06T10:55:59.629Z,1277.00
2023-03-06T10:56:59.654Z,1294.00
2023-03-06T10:57:59.620Z,1298.00
2023-03-06T10:59:00.177Z,1314.00
2023-03-06T10:59:59.613Z,1352.00
2023-03-06T11:00:59.595Z,1373.00
2023-03-06T11:01:59.659Z,1392.00
2023-03-06T11:02:59.600Z,1411.00
2023-03-06T11:03:59.585Z,1488.00
2023-03-06T11:04:59.642Z,1493.00
2023-03-06T11:05:59.533Z,1494.00
2023-03-06T11:06:59.530Z,1507.00
2023-03-06T11:07:59.597Z,1522.00
2023-03-06T11:09:59.525Z,1551.00
2023-03-06T11:10:59.515Z,1576.00
2023-03-06T11:11:59.505Z,1593.00
2023-03-06T11:12:59.482Z,1605.00
2023-03-06T11:13:59.584Z,1620.00
2023-03-06T11:14:59.534Z,1653.00
2023-03-06T11:15:59.471Z,1673.00
2023-03-06T11:16:59.472Z,1691.00
2023-03-06T11:17:59.496Z,1705.00
2023-03-06T11:18:59.544Z,1722.00
2023-03-06T11:19:59.466Z,1736.00
2023-03-06T11:20:59.440Z,1747.00
2023-03-06T11:21:59.478Z,1764.00
2023-03-06T11:22:59.643Z,1792.00
2023-03-06T11:23:59.606Z,1821.00
2023-03-06T11:24:59.429Z,1837.00
2023-03-06T11:25:59.445Z,1848.00
2023-03-06T11:26:59.395Z,1866.00
2023-03-06T11:27:59.389Z,1883.00
2023-03-06T11:28:59.460Z,1900.00
2023-03-06T11:29:59.467Z,1923.00
2023-03-06T11:30:59.589Z,1916.00
2023-03-06T11:31:59.624Z,1933.00
2023-03-06T11:32:59.618Z,1948.00
2023-03-06T11:33:59.723Z,1959.00
2023-03-06T11:35:00.176Z,1976.00
2023-03-06T11:35:59.828Z,1983.00
2023-03-06T11:36:59.823Z,1995.00
2023-03-06T11:37:59.912Z,2002.00
2023-03-06T11:38:59.936Z,2032.00
2023-03-06T11:40:00.008Z,2056.00
2023-03-06T11:41:00.001Z,2174.00
2023-03-06T11:41:59.965Z,1977.00
2023-03-06T11:43:00.381Z,1921.00
2023-03-06T11:44:00.372Z,1897.00
2023-03-06T11:45:01.314Z,1910.00
2023-03-06T11:46:00.103Z,1909.00
2023-03-06T11:47:00.166Z,1901.00
2023-03-06T11:48:00.145Z,1889.00
2023-03-06T11:49:00.120Z,1866.00
2023-03-06T11:50:00.580Z,1829.00
2023-03-06T11:51:00.177Z,1813.00
2023-03-06T11:52:00.264Z,1802.00
2023-03-06T11:53:00.219Z,1788.00
2023-03-06T11:54:00.284Z,1768.00
2023-03-06T11:55:00.703Z,1753.00
2023-03-06T11:56:00.332Z,1742.00
2023-03-06T11:57:00.333Z,1731.00
2023-03-06T11:58:00.376Z,1720.00
2023-03-06T11:59:00.405Z,1700.00
2023-03-06T12:00:00.449Z,1687.00
2023-03-06T12:01:00.517Z,1677.00
2023-03-06T12:02:00.743Z,1668.00
2023-03-06T12:03:00.542Z,1659.00
2023-03-06T12:04:00.609Z,1651.00
2023-03-06T12:05:01.203Z,1638.00
2023-03-06T12:06:00.695Z,1627.00
2023-03-06T12:07:00.743Z,1618.00
2023-03-06T12:08:00.782Z,1610.00
2023-03-06T12:09:00.864Z,1604.00
2023-03-06T12:10:00.901Z,1594.00
2023-03-06T12:11:00.932Z,1583.00
2023-03-06T12:12:00.976Z,1572.00
2023-03-06T12:13:01.063Z,1562.00
2023-03-06T12:14:03.616Z,1556.00
2023-03-06T12:15:01.135Z,1544.00
2023-03-06T12:16:01.032Z,1534.00
2023-03-06T12:17:01.080Z,1518.00
2023-03-06T12:18:01.117Z,1507.00
2023-03-06T12:19:01.094Z,1495.00
2023-03-06T12:20:01.104Z,1487.00
2023-03-06T12:21:01.043Z,1475.00
2023-03-06T12:22:01.058Z,1466.00
2023-03-06T12:23:14.645Z,1458.00
2023-03-06T12:24:02.052Z,1454.00
2023-03-06T12:25:01.058Z,1444.00
2023-03-06T12:26:01.046Z,1437.00
2023-03-06T12:27:01.002Z,1428.00
2023-03-06T12:28:00.982Z,1417.00
2023-03-06T12:29:00.998Z,1410.00
2023-03-06T12:30:01.196Z,1409.00
2023-03-06T12:31:00.977Z,1395.00
2023-03-06T12:32:01.081Z,1397.00
2023-03-06T12:33:00.956Z,1381.00
2023-03-06T12:34:00.960Z,1333.00
2023-03-06T12:35:01.188Z,1322.00
2023-03-06T12:36:00.939Z,1241.00
2023-03-06T12:37:00.904Z,1261.00
2023-03-06T12:38:00.949Z,1229.00
2023-03-06T12:39:00.942Z,1192.00
2023-03-06T12:40:00.937Z,1169.00
2023-03-06T12:41:00.895Z,1089.00
2023-03-06T12:42:00.946Z,1080.00
2023-03-06T12:43:00.918Z,1078.00
2023-03-06T12:44:00.910Z,1080.00
2023-03-06T12:45:00.956Z,1076.00
2023-03-06T12:46:00.930Z,1067.00
2023-03-06T12:47:00.928Z,1055.00
2023-03-06T12:48:00.924Z,1043.00
2023-03-06T12:49:00.934Z,1031.00
2023-03-06T12:50:00.953Z,1020.00
2023-03-06T12:51:00.949Z,1009.00
2023-03-06T12:52:00.951Z,996.00
2023-03-06T12:53:00.915Z,985.00
2023-03-06T12:54:00.930Z,977.00
2023-03-06T12:55:00.902Z,976.00
2023-03-06T12:56:00.898Z,974.00
2023-03-06T12:57:00.918Z,966.00
2023-03-06T12:58:00.900Z,959.00
2023-03-06T12:59:00.899Z,954.00
2023-03-06T13:00:00.895Z,951.00
2023-03-06T13:01:04.732Z,946.00
2023-03-06T13:02:00.882Z,943.00
2023-03-06T13:03:00.879Z,939.00
2023-03-06T13:04:00.859Z,937.00
2023-03-06T13:05:00.868Z,932.00
2023-03-06T13:06:00.881Z,925.00
2023-03-06T13:07:00.864Z,921.00
2023-03-06T13:08:00.838Z,918.00
2023-03-06T13:09:00.824Z,919.00
2023-03-06T13:10:00.855Z,917.00
2023-03-06T13:11:00.795Z,912.00
2023-03-06T13:12:00.834Z,904.00
2023-03-06T13:13:00.896Z,894.00
2023-03-06T13:14:00.789Z,888.00
2023-03-06T13:15:00.870Z,876.00
2023-03-06T13:16:00.776Z,867.00
2023-03-06T13:17:00.781Z,857.00
2023-03-06T13:18:00.783Z,850.00
2023-03-06T13:19:00.737Z,839.00
2023-03-06T13:20:00.722Z,832.00
2023-03-06T13:21:00.742Z,827.00
2023-03-06T13:22:00.770Z,822.00
2023-03-06T13:23:00.768Z,816.00
2023-03-06T13:24:00.725Z,810.00
2023-03-06T13:25:08.164Z,803.00
2023-03-06T13:26:01.737Z,800.00
2023-03-06T13:27:00.716Z,796.00
2023-03-06T13:28:00.682Z,795.00
2023-03-06T13:29:00.684Z,791.00
2023-03-06T13:30:00.691Z,789.00
2023-03-06T13:31:00.731Z,786.00
2023-03-06T13:32:00.752Z,784.00
2023-03-06T13:33:00.628Z,785.00
2023-03-06T13:34:00.657Z,786.00
2023-03-06T13:35:00.643Z,784.00
2023-03-06T13:36:00.659Z,780.00
2023-03-06T13:37:00.621Z,780.00
2023-03-06T13:38:00.595Z,779.00
2023-03-06T13:39:00.604Z,778.00
2023-03-06T13:40:00.623Z,778.00
2023-03-06T13:41:00.621Z,778.00
2023-03-06T13:42:00.558Z,775.00
2023-03-06T13:43:00.564Z,775.00
2023-03-06T13:44:00.576Z,776.00
2023-03-06T13:45:00.561Z,776.00
2023-03-06T13:46:00.576Z,776.00
2023-03-06T13:47:00.580Z,772.00
2023-03-06T13:48:27.244Z,768.00
2023-03-06T13:49:01.522Z,768.00
2023-03-06T13:50:00.521Z,765.00
2023-03-06T13:51:00.525Z,764.00
2023-03-06T13:52:00.545Z,761.00
2023-03-06T13:53:00.493Z,758.00
2023-03-06T13:54:00.518Z,757.00
2023-03-06T13:55:00.484Z,754.00
2023-03-06T13:56:00.495Z,751.00
2023-03-06T13:57:00.455Z,747.00
2023-03-06T13:58:00.478Z,746.00
2023-03-06T13:59:00.477Z,745.00
2023-03-06T14:00:08.559Z,742.00
2023-03-06T14:01:01.476Z,736.00
2023-03-06T14:02:00.444Z,735.00
2023-03-06T14:03:00.466Z,736.00
2023-03-06T14:04:00.485Z,733.00
2023-03-06T14:05:00.411Z,731.00
2023-03-06T14:06:00.421Z,725.00
2023-03-06T14:07:00.394Z,721.00
2023-03-06T14:08:00.397Z,717.00
2023-03-06T14:09:00.369Z,711.00
2023-03-06T14:10:00.361Z,709.00
2023-03-06T14:11:00.379Z,710.00
2023-03-06T14:12:00.356Z,712.00
2023-03-06T14:13:00.373Z,710.00
2023-03-06T14:14:00.336Z,711.00
2023-03-06T14:15:00.345Z,710.00
2023-03-06T14:16:00.403Z,709.00
2023-03-06T14:17:00.327Z,706.00
2023-03-06T14:18:00.319Z,702.00
2023-03-06T14:19:00.318Z,700.00
2023-03-06T14:20:00.314Z,700.00
2023-03-06T14:21:00.293Z,699.00
2023-03-06T14:22:00.303Z,797.00
2023-03-06T14:23:00.268Z,945.00
